No es requerida especial atención con respecto al clima.   -   No hay avisos meteorológicos

Informes METAR

 

LEZL - Sevilla, Spain
Distancia de la estación: ESE 25km
Actualización: 22/09/2017 09:30
Despejado
Despejado
 Viento de variable
Viento: variable 2 km/h
Temperatura: 19°C
Rocío: 14°C
Humedad: 73%
Barómetro: 1017 hPa
Resumen: Despejado
Visibilidad: mayor de 10 km
2017/09/22 07:30 LEZL 220730Z VRB01KT CAVOK 19/14 Q1017 NOSIG
LEMO - Morón, Spain
Distancia de la estación: SE 65km
Actualización: 22/09/2017 09:00
Despejado
Despejado
 Viento de calm
Viento: Calma
Temperatura: 16°C
Rocío: 10°C
Humedad: 68%
Barómetro: 1017 hPa
Resumen: Despejado
Visibilidad: mayor de 10 km
2017/09/22 07:00 LEMO 220700Z 00000KT CAVOK 16/10 Q1017 NOSIG
LEJR - Jeréz, Spain
Distancia de la estación: S 87km
Actualización: 22/09/2017 09:30
Parcialmente nuboso
Parcialmente nuboso
 Viento de calm
Viento: Calma
Temperatura: 17°C
Rocío: 15°C
Humedad: 88%
Barómetro: 1017 hPa
Nubes: Parcialmente nuboso
Visibilidad: 9 km
2017/09/22 07:30 LEJR 220730Z 00000KT 9000 NSC 17/15 Q1017
 
LERT - Rota, Spain
Distancia de la estación: S 101km
Actualización: 22/09/2017 09:00
Parcialmente nuboso
Parcialmente nuboso
 Viento de calm
Viento: Calma
Temperatura: 17°C
Rocío: 16°C
Humedad: 94%
Barómetro: 1016 hPa
Nubes: Parcialmente nuboso
Visibilidad: 7 km
2017/09/22 07:00 LERT 220700Z 00000KT 7000 NSC 17/16 Q1016 NOSIG
LEMG - Málaga, Spain
Distancia de la estación: ESE 178km
Actualización: 22/09/2017 09:30
Despejado
Despejado
 Viento de ONO
Viento: ONO 11 km/h
Temperatura: 16°C
Rocío: 12°C
Humedad: 77%
Barómetro: 1017 hPa
Resumen: Despejado
Visibilidad: mayor de 10 km
2017/09/22 07:30 LEMG 220730Z 30006KT CAVOK 16/12 Q1017 NOSIG
LEBA - Córdoba, Spain
Distancia de la estación: ENE 123km
Actualización: 22/09/2017 09:30
Despejado
Despejado
 Viento de calm
Viento: Calma
Temperatura: 18°C
Rocío: 10°C
Humedad: 60%
Barómetro: 1017 hPa
Resumen: Despejado
Visibilidad: mayor de 10 km
2017/09/22 07:30 LEBA 220730Z 00000KT CAVOK 18/10 Q1017
 
LEGR - Granada, Spain
Distancia de la estación: E 215km
Actualización: 22/09/2017 09:30
Despejado
Despejado
 Viento de variable
Viento: variable 2 km/h
Temperatura: 13°C
Rocío: 6°C
Humedad: 63%
Barómetro: 1019 hPa
Resumen: Despejado
Visibilidad: mayor de 10 km
2017/09/22 07:30 LEGR 220730Z VRB01KT CAVOK 13/06 Q1019
LEAM - Almería, Spain
Distancia de la estación: E 344km
Actualización: 22/09/2017 09:30
Despejado
Despejado
 Viento de calm
Viento: Calma
Temperatura: 22°C
Rocío: 15°C
Humedad: 65%
Barómetro: 1017 hPa
Resumen: Despejado
Visibilidad: mayor de 10 km
2017/09/22 07:30 LEAM 220730Z 00000KT CAVOK 22/15 Q1017
GCLP - Las Palmas/Aeropuerto, Spain
Distancia de la estación: SO 1410km
Actualización: 22/09/2017 09:30
Muy nuboso
Muy nuboso
 Viento de N
Viento: N 41 km/h
Temperatura: 23°C
Rocío: 14°C
Humedad: 57%
Barómetro: 1016 hPa
Nubes: Muy nuboso
Visibilidad: 10 km
Detalles de las nubes: Poco nuboso 762 m
Muy nuboso 1219 m
2017/09/22 07:30 GCLP 220730Z 36022KT 9999 FEW025 BKN040 23/14 Q1016 NOSIG
 
LEMD - Madrid/Barajas, Spain
Distancia de la estación: NNE 402km
Actualización: 22/09/2017 09:30
Despejado
Despejado
 Viento de variable
Viento: variable 4 km/h
Temperatura: 19°C
Rocío: 9°C
Humedad: 52%
Barómetro: 1019 hPa
Resumen: Despejado
Visibilidad: mayor de 10 km
2017/09/22 07:30 LEMD 220730Z VRB02KT CAVOK 19/09 Q1019 NOSIG
LEVD - Valladolid, Spain
Distancia de la estación: N 492km
Actualización: 22/09/2017 09:30
Despejado
Despejado
 Viento de ENE
Viento: ENE 26 km/h
Temperatura: 13°C
Rocío: 10°C
Humedad: 82%
Barómetro: 1020 hPa
Resumen: Despejado
Visibilidad: mayor de 10 km
2017/09/22 07:30 LEVD 220730Z 06014KT CAVOK 13/10 Q1020
LEBL - Barcelona, Spain
Distancia de la estación: NE 816km
Actualización: 22/09/2017 09:30
Muy nuboso
Muy nuboso
 Viento de NNO
Viento: NNO 9 km/h
Temperatura: 20°C
Rocío: 17°C
Humedad: 83%
Barómetro: 1020 hPa
Nubes: Muy nuboso
Visibilidad: 10 km
Detalles de las nubes: Poco nuboso 610 m
Muy nuboso 1524 m
2017/09/22 07:30 LEBL 220730Z 33005KT 290V360 9999 FEW020 BKN050 20/17 Q1020 NOSIG